x

South Brooks (46132) Wave Buoy

6:00pm - Wed 23rd Apr 2014 All times are PDT. -7 hours from GMT.

  • Sig Wave height 7.5ft
  • Peak Period 11s
  • Wind
    29mph, 36mph gusts
  • Sea Temp 47°f
  • Air Temp 47°f
  • Sea Pressure 1002.2mb
  • South Brooks
  • South Brooks

More Historic Weather Station data

Upgrade to MSW Pro to gain access to the past 30 days of data for over 8000 Wavebouys and Weather Stations around the globe.

Join Pro

Comparision Forecast

View Surf forecast
   
Wed 04/23 6:00pm 7.5ft 11s 29 36 mph 1002.2mb 47f 47f
5:00pm 7ft 11s 25 34 mph 1003.5mb 48f 49f
4:00pm 7ft 11s 22 27 mph 1004.7mb 48f 49f
3:00pm 7ft 11s 18 20 mph 1005.8mb 48f 49f
2:00pm 7ft 11s 20 22 mph 1006.4mb 48f 48f
1:00pm 7.5ft 12s 20 22 mph 1007.1mb 47f 48f
12:00pm 7ft 11s 18 22 mph 1007mb 47f 48f
11:00am 7ft 11s 22 27 mph 1006.8mb 47f 47f
10:00am 8ft 11s 22 27 mph 1007mb 47f 47f
9:00am 8ft 12s 22 27 mph 1006.9mb 48f 47f
8:00am 9ft 11s 22 27 mph 1006.9mb 47f 47f
7:00am 9ft 12s 22 25 mph 1007.1mb 47f 47f
6:00am 9ft 12s 20 25 mph 1007.1mb 47f 47f
5:00am 9ft 12s 20 27 mph 1007.2mb 47f 47f
4:00am 9.5ft 12s 22 27 mph 1007.1mb 48f 47f
3:00am 9ft 12s 20 27 mph 1007.1mb 48f 47f
2:00am 9ft 12s 20 25 mph 1007.2mb 48f 47f
1:00am 9ft 13s 22 27 mph 1007.1mb 48f 47f
12:00am 9.5ft 12s 22 29 mph 1006.9mb 48f 47f
Tue 04/22 11:00pm 10ft 13s 22 29 mph 1006.8mb 48f 46f
10:00pm 10ft 12s 25 29 mph 1006.5mb 48f 47f
9:00pm 9ft 13s 25 31 mph 1006.2mb 48f 47f
8:00pm 10ft 13s 25 31 mph 1005.9mb 48f 47f
7:00pm 10ft 13s 25 29 mph 1005.9mb 48f 47f
6:00pm 9ft 13s 20 29 mph 1006.4mb 48f 47f
5:00pm 10ft 13s 22 27 mph 1006.4mb 48f 46f
4:00pm 10.5ft 14s 22 27 mph 1006.9mb 48f 46f
3:00pm 10ft 13s 22 27 mph 1007.5mb 48f 46f
2:00pm 9ft 13s 25 31 mph 1007.1mb 48f 48f
1:00pm 10ft 13s 22 29 mph 1007.5mb 48f 48f
12:00pm 9.5ft 13s 22 27 mph 1008mb 48f 49f
11:00am 9ft 12s 20 25 mph 1008.1mb 48f 48f
10:00am 8.5ft 13s 18 22 mph 1008.2mb 48f 47f
9:00am 8ft 14s 18 22 mph 1008.5mb 48f 47f
8:00am 8ft 12s 13 18 mph 1009.1mb 48f 47f
7:00am 8ft 12s 11 16 mph 1009.3mb 48f 47f
6:00am 8ft 12s 9 11 mph 1009.7mb 48f 46f
5:00am 8ft 13s 7 9 mph 1010.1mb 47f 46f
4:00am 9ft 13s 4 7 mph 1010.6mb 48f 47f
3:00am 9.5ft 13s 2 7 mph 1011.3mb 48f 47f
2:00am 10ft 12s  -  4 mph 1011.8mb 48f 47f
1:00am 11ft 13s 4 7 mph 1012.4mb 48f 47f
12:00am 11.5ft 13s 4 9 mph 1012.4mb 48f 47f
Mon 04/21 11:00pm 11.5ft 14s 4 9 mph 1013mb 48f 47f
10:00pm 11ft 13s 7 9 mph 1013.3mb 48f 47f
9:00pm 11.5ft 14s 7 9 mph 1013.5mb 48f 47f
8:00pm 12ft 12s 7 11 mph 1013.8mb 48f 48f
7:00pm 12.5ft 13s 7 11 mph 1014.3mb 48f 48f
6:00pm 11.5ft 12s 9 13 mph 1014.5mb 49f 49f
5:00pm 11ft 14s 9 13 mph 1015.4mb 50f 49f
4:00pm 11ft 13s 4 9 mph 1015.9mb 50f 49f
3:00pm 11ft 14s 4 9 mph 1016.4mb 50f 49f
2:00pm 12ft 13s 2 7 mph 1016.7mb 49f 49f
1:00pm 11ft 14s 2 7 mph 1016.9mb 49f 49f
12:00pm 13ft 12s 2 4 mph 1017.3mb 48f 48f
11:00am 12.5ft 12s 4 9 mph 1017.5mb 48f 47f
10:00am 13ft 15s 4 7 mph 1017.4mb 48f 49f
9:00am 13ft 14s 4 11 mph 1017.5mb 48f 49f
8:00am 13.5ft 13s 4 7 mph 1017.6mb 48f 48f
7:00am 15ft 12s 4 7 mph 1017.7mb 47f 48f
6:00am 14.5ft 13s 4 9 mph 1017.6mb 47f 47f
5:00am 15.5ft 13s 7 11 mph 1017.9mb 47f 48f
4:00am 14.5ft 13s 13 20 mph 1018mb 47f 47f
3:00am 15ft 13s 16 20 mph 1018.2mb 47f 47f
2:00am 14ft 14s 11 18 mph 1018.5mb 47f 48f
1:00am 13.5ft 14s 7 9 mph 1018.5mb 47f 48f
12:00am 13ft 14s 9 11 mph 1018.4mb 47f 49f
Sun 04/20 11:00pm 14ft 14s 11 16 mph 1018.1mb 47f 49f
10:00pm 13.5ft 14s 18 22 mph 1017.7mb 47f 49f
9:00pm 14ft 15s 16 20 mph 1017.5mb 48f 48f
8:00pm 14ft 14s 20 27 mph 1016.8mb 48f 48f
7:00pm 14.5ft 14s 18 22 mph 1017mb 48f 48f
6:00pm 15ft 14s 18 22 mph 1016.9mb 48f 47f
5:00pm 16.5ft 15s 18 25 mph 1016.7mb 48f 47f
4:00pm 15.5ft 14s 18 22 mph 1016.3mb 48f 47f
1:00pm 18ft 14s 34 45 mph 1014.6mb 47f 49f
12:00pm 17ft 14s 36 45 mph 1014.8mb 47f 49f
11:00am 16.5ft 15s 31 43 mph 1015.3mb 48f 50f
10:00am 17.5ft 14s 29 38 mph 1015.7mb 48f 50f
9:00am 19ft 14s 29 38 mph 1016.1mb 48f 49f
8:00am 18.5ft 14s 27 34 mph 1016.5mb 48f 49f
7:00am 20.5ft 15s 25 34 mph 1016.6mb 48f 49f
6:00am 19.5ft 17s 20 29 mph 1017.1mb 48f 49f
5:00am 20.5ft 16s 20 27 mph 1017.3mb 48f 49f
4:00am 21ft 17s 20 31 mph 1017.6mb 48f 47f